Time;durP1;ratioP1;P1;durP2;ratioP2;P2;SDS_P1;SDS_P2;PMS_P1;PMS_P2;Temp;Humidity;BMP_temperature;BMP_pressure;BME280_temperature;BME280_humidity;BME280_pressure;Samples;Min_cycle;Max_cycle;Signal;HPM_P1;HPM_P2
2022/06/17 11:31:40;;;;;;;7.70;6.18;;;;;;;;;;6160860;23;20110;-88
2022/06/17 11:34:12;;;;;;;6.50;5.80;;;;;;;;;;6215975;23;20407;-87
2022/06/17 11:36:58;;;;;;;7.80;6.95;;;;;;;;;;6216061;23;20332;-88
2022/06/17 11:39:32;;;;;;;9.48;6.35;;;;;;;;;;6215930;23;20039;-88
2022/06/17 11:42:00;;;;;;;7.78;5.88;;;;;;;;;;6189512;23;20400;-88
2022/06/17 11:44:26;;;;;;;6.75;6.15;;;;;;;;;;6189074;23;20005;-88
2022/06/17 11:46:58;;;;;;;7.35;5.32;;;;;;;;;;6189063;23;20404;-88
2022/06/17 16:01:28;;;;;;;6.50;5.90;;;;;;;;;;6183421;23;20013;-80
2022/06/17 16:04:20;;;;;;;5.95;5.45;;;;;;;;;;6209251;23;20013;-80
2022/06/17 16:07:17;;;;;;;6.78;6.07;;;;;;;;;;6185568;23;20005;-80
2022/06/17 16:09:44;;;;;;;7.38;6.68;;;;;;;;;;6185898;23;20032;-80
2022/06/17 16:12:21;;;;;;;7.03;6.10;;;;;;;;;;6186687;23;20001;-81
2022/06/17 16:15:00;;;;;;;6.60;6.00;;;;;;;;;;6187530;23;20469;-78
2022/06/17 16:17:33;;;;;;;6.78;6.18;;;;;;;;;;6187209;23;20021;-80
2022/06/17 16:20:03;;;;;;;6.57;5.97;;;;;;;;;;6187549;23;20012;-79
2022/06/17 16:22:33;;;;;;;7.63;6.40;;;;;;;;;;6187494;23;20083;-80
2022/06/17 16:25:02;;;;;;;6.70;6.10;;;;;;;;;;6187647;23;20067;-80
2022/06/17 16:27:27;;;;;;;;;;;;;;;;;;6211336;23;20036;-80
2022/06/17 16:29:57;;;;;;;7.53;6.75;;;;;;;;;;6187480;23;20348;-80
2022/06/17 16:32:26;;;;;;;7.63;6.80;;;;;;;;;;6187578;23;20032;-80
2022/06/17 16:34:54;;;;;;;7.13;6.47;;;;;;;;;;6187572;23;20005;-80
2022/06/17 16:37:27;;;;;;;7.07;5.95;;;;;;;;;;6187304;23;20329;-79
2022/06/17 16:43:58;;;;;;;6.90;5.97;;;;;;;;;;6187327;23;20116;-79
2022/06/17 16:45:37;;;;;;;6.65;6.05;;;;;;;;;;6187135;23;20016;-80
2022/06/17 16:48:07;;;;;;;6.03;5.43;;;;;;;;;;6187361;23;20001;-80
2022/06/17 16:50:32;;;;;;;7.03;5.97;;;;;;;;;;6187192;23;20325;-80
2022/06/17 16:53:00;;;;;;;7.97;6.93;;;;;;;;;;6187291;23;19997;-82
2022/06/17 16:55:28;;;;;;;6.60;6.00;;;;;;;;;;6187351;23;20052;-80
2022/06/17 16:57:55;;;;;;;6.40;5.72;;;;;;;;;;6187272;23;20036;-81
2022/06/17 17:00:25;;;;;;;6.78;5.97;;;;;;;;;;6203500;23;20034;-81
2022/06/17 17:02:52;;;;;;;7.55;6.63;;;;;;;;;;6217188;23;20005;-83
2022/06/17 17:05:19;;;;;;;7.50;6.80;;;;;;;;;;6217147;23;20020;-81
2022/06/17 17:07:44;;;;;;;6.97;6.38;;;;;;;;;;6190696;23;20383;-82
2022/06/17 17:10:13;;;;;;;6.85;5.65;;;;;;;;;;6217447;23;20008;-82
2022/06/17 17:12:40;;;;;;;8.25;7.07;;;;;;;;;;6217115;23;20001;-83
2022/06/17 17:15:07;;;;;;;6.85;6.00;;;;;;;;;;6217124;23;20071;-81
2022/06/17 17:17:32;;;;;;;6.32;5.72;;;;;;;;;;6190758;23;20084;-82
2022/06/17 17:19:58;;;;;;;6.45;5.88;;;;;;;;;;6190297;23;20040;-83
2022/06/17 17:22:29;;;;;;;6.72;6.00;;;;;;;;;;6217298;23;20009;-83
2022/06/17 17:25:01;;;;;;;6.28;5.70;;;;;;;;;;6217024;23;20005;-83
2022/06/17 17:27:27;;;;;;;6.95;6.35;;;;;;;;;;6190757;23;20096;-87
2022/06/17 17:29:54;;;;;;;6.88;5.97;;;;;;;;;;6217269;23;20042;-80
2022/06/17 17:32:22;;;;;;;6.00;5.40;;;;;;;;;;6216772;23;20077;-81
2022/06/17 17:34:48;;;;;;;6.47;5.60;;;;;;;;;;6217002;23;20012;-79
2022/06/17 17:37:15;;;;;;;6.40;5.80;;;;;;;;;;6217015;23;20332;-82
2022/06/17 17:39:41;;;;;;;6.47;5.85;;;;;;;;;;6216871;23;20395;-83
2022/06/17 17:42:07;;;;;;;6.25;5.65;;;;;;;;;;6217089;23;20047;-82
2022/06/17 17:44:33;;;;;;;6.43;5.55;;;;;;;;;;6217027;23;20420;-83
2022/06/17 17:46:59;;;;;;;6.68;6.07;;;;;;;;;;6216992;23;20008;-81
2022/06/17 17:49:24;;;;;;;5.75;5.25;;;;;;;;;;6217402;23;20012;-82
2022/06/17 17:51:52;;;;;;;6.15;5.45;;;;;;;;;;6190358;23;20001;-81
2022/06/17 17:54:18;;;;;;;6.30;5.80;;;;;;;;;;6216964;23;20004;-79
2022/06/17 17:56:44;;;;;;;6.78;6.07;;;;;;;;;;6217015;23;20000;-82
2022/06/17 17:59:23;;;;;;;7.57;6.88;;;;;;;;;;6216922;23;20075;-81
2022/06/17 18:01:50;;;;;;;7.63;6.10;;;;;;;;;;6217087;23;20012;-80
2022/06/17 18:04:20;;;;;;;6.90;6.20;;;;;;;;;;6216996;23;20234;-80
2022/06/17 18:06:47;;;;;;;6.82;6.22;;;;;;;;;;6216813;23;20012;-80
2022/06/17 18:09:14;;;;;;;7.53;6.82;;;;;;;;;;6217007;23;20067;-87
2022/06/17 18:11:44;;;;;;;7.80;7.00;;;;;;;;;;6219519;23;20000;-88
2022/06/17 18:14:14;;;;;;;8.07;6.35;;;;;;;;;;6219634;23;20012;-90
2022/06/17 18:16:41;;;;;;;7.82;6.53;;;;;;;;;;6219082;23;20011;-81
2022/06/17 18:19:07;;;;;;;6.30;5.70;;;;;;;;;;6218722;23;20011;-88
2022/06/17 18:21:33;;;;;;;7.13;6.32;;;;;;;;;;6216390;23;20079;-83
2022/06/17 18:23:59;;;;;;;8.20;6.32;;;;;;;;;;6216412;23;20000;-84
2022/06/17 18:26:32;;;;;;;9.07;6.03;;;;;;;;;;6216151;23;20338;-83
2022/06/17 18:28:59;;;;;;;7.40;6.15;;;;;;;;;;6216403;23;20014;-80
2022/06/17 18:31:25;;;;;;;7.53;6.82;;;;;;;;;;6216745;23;20324;-83
2022/06/17 18:33:53;;;;;;;7.15;6.55;;;;;;;;;;6216419;23;20039;-80
2022/06/17 18:36:19;;;;;;;6.65;5.95;;;;;;;;;;6215773;23;20055;-83
2022/06/17 18:38:45;;;;;;;10.52;6.10;;;;;;;;;;6189580;23;20009;-84
2022/06/17 18:43:58;;;;;;;6.63;5.88;;;;;;;;;;6216596;23;20078;-81
2022/06/17 18:46:24;;;;;;;6.07;5.45;;;;;;;;;;6216363;23;20004;-80
2022/06/17 18:48:51;;;;;;;8.45;6.32;;;;;;;;;;6216481;23;20054;-80
2022/06/17 18:51:16;;;;;;;7.57;6.50;;;;;;;;;;6216507;23;20084;-81
2022/06/17 18:53:42;;;;;;;6.90;6.13;;;;;;;;;;6216424;23;19996;-80
2022/06/17 18:56:09;;;;;;;7.35;6.60;;;;;;;;;;6216306;23;20024;-82
2022/06/17 18:58:35;;;;;;;8.93;7.20;;;;;;;;;;6216489;23;20048;-84
2022/06/17 19:01:04;;;;;;;7.78;7.18;;;;;;;;;;6216153;23;20015;-85
2022/06/17 19:03:31;;;;;;;6.97;6.38;;;;;;;;;;6189817;23;20004;-84
2022/06/17 19:05:58;;;;;;;7.90;7.10;;;;;;;;;;6216318;23;20015;-83
2022/06/17 19:19:38;;;;;;;6.78;6.03;;;;;;;;;;6216268;23;20120;-83
2022/06/17 19:22:09;;;;;;;7.72;7.07;;;;;;;;;;6216198;23;20472;-84
2022/06/17 19:24:34;;;;;;;6.80;6.07;;;;;;;;;;6216415;23;20412;-84
2022/06/17 19:27:00;;;;;;;6.20;5.60;;;;;;;;;;6216060;23;20056;-83
2022/06/17 19:29:26;;;;;;;7.80;7.00;;;;;;;;;;6216363;23;20001;-83
2022/06/17 19:31:54;;;;;;;6.97;6.38;;;;;;;;;;6216246;23;20025;-83
2022/06/17 19:34:28;;;;;;;8.23;6.07;;;;;;;;;;6216186;23;20420;-83
2022/06/17 19:36:56;;;;;;;6.82;6.13;;;;;;;;;;6189434;23;20324;-84
2022/06/17 19:39:22;;;;;;;6.40;5.88;;;;;;;;;;6216057;23;20328;-83
2022/06/17 19:41:53;;;;;;;7.78;7.07;;;;;;;;;;6216154;23;20001;-81
2022/06/17 19:44:21;;;;;;;6.68;5.97;;;;;;;;;;6216308;23;20004;-84
2022/06/17 19:46:52;;;;;;;6.70;6.10;;;;;;;;;;6216847;23;20008;-82
2022/06/17 19:49:28;;;;;;;7.00;6.28;;;;;;;;;;6218271;23;20004;-84
2022/06/17 19:51:54;;;;;;;9.18;7.20;;;;;;;;;;6218168;23;20004;-84
2022/06/17 19:54:20;;;;;;;7.25;6.65;;;;;;;;;;6218128;23;20438;-82
2022/06/17 19:56:46;;;;;;;7.80;6.97;;;;;;;;;;6218334;23;20001;-80
2022/06/17 19:59:15;;;;;;;8.43;5.97;;;;;;;;;;6218155;23;20039;-81
2022/06/17 20:01:43;;;;;;;7.40;6.90;;;;;;;;;;6218242;23;20420;-82
2022/06/17 20:04:35;;;;;;;7.55;6.65;;;;;;;;;;6218056;23;20004;-84
2022/06/17 20:07:03;;;;;;;8.43;6.18;;;;;;;;;;6213713;23;20057;-84
2022/06/17 20:09:29;;;;;;;7.20;6.60;;;;;;;;;;6218039;23;20008;-82
2022/06/17 20:11:56;;;;;;;8.18;7.07;;;;;;;;;;6217809;23;20004;-84
2022/06/17 20:14:31;;;;;;;7.47;6.78;;;;;;;;;;6218102;23;20000;-84
2022/06/17 20:16:57;;;;;;;8.20;6.85;;;;;;;;;;6217904;23;20005;-84
2022/06/17 20:19:24;;;;;;;7.28;6.68;;;;;;;;;;6217862;23;20008;-84
2022/06/17 20:21:54;;;;;;;8.35;6.90;;;;;;;;;;6217939;23;20001;-83
2022/06/17 20:24:20;;;;;;;7.53;6.53;;;;;;;;;;6218414;23;20024;-84
2022/06/17 20:26:46;;;;;;;8.10;7.30;;;;;;;;;;6218106;23;20060;-83
2022/06/17 20:29:19;;;;;;;7.53;6.93;;;;;;;;;;6218632;23;20005;-84
2022/06/17 20:31:45;;;;;;;8.07;7.25;;;;;;;;;;6218913;23;20023;-83
2022/06/17 20:34:12;;;;;;;7.57;6.88;;;;;;;;;;6218446;23;20416;-84
2022/06/17 20:36:39;;;;;;;8.52;7.32;;;;;;;;;;6191473;23;19996;-84
2022/06/17 20:39:09;;;;;;;7.15;6.45;;;;;;;;;;6191687;23;20028;-84
2022/06/17 20:41:34;;;;;;;6.95;6.30;;;;;;;;;;6219294;23;20008;-84
2022/06/17 20:43:59;;;;;;;8.02;7.22;;;;;;;;;;6218672;23;20002;-80
2022/06/17 20:49:58;;;;;;;8.30;7.50;;;;;;;;;;6218686;23;20026;-78
2022/06/17 20:52:11;;;;;;;8.38;7.68;;;;;;;;;;6218837;23;20062;-82
2022/06/17 20:54:40;;;;;;;8.27;7.57;;;;;;;;;;6218916;23;20031;-84
2022/06/17 21:00:22;;;;;;;8.00;7.30;;;;;;;;;;6218403;23;20027;-83
2022/06/17 21:02:52;;;;;;;9.10;7.82;;;;;;;;;;6218576;23;20001;-82
2022/06/17 21:05:21;;;;;;;8.20;7.40;;;;;;;;;;6219259;23;20063;-83
2022/06/17 21:07:48;;;;;;;8.90;8.00;;;;;;;;;;6218543;23;20014;-81
2022/06/17 21:10:25;;;;;;;9.15;8.35;;;;;;;;;;6218912;23;20011;-84
2022/06/17 21:12:51;;;;;;;9.80;8.48;;;;;;;;;;6192356;23;20037;-83
2022/06/17 21:15:27;;;;;;;8.82;7.93;;;;;;;;;;6192058;23;20036;-82
2022/06/17 21:17:53;;;;;;;8.00;7.30;;;;;;;;;;6191968;23;20005;-84
2022/06/17 21:20:19;;;;;;;7.97;7.38;;;;;;;;;;6218367;23;20078;-83
2022/06/17 21:22:49;;;;;;;9.25;8.45;;;;;;;;;;6219006;23;20389;-82
2022/06/17 21:25:21;;;;;;;8.80;7.93;;;;;;;;;;6218985;23;20005;-83
2022/06/17 21:27:48;;;;;;;9.20;8.25;;;;;;;;;;6223710;23;20001;-88
2022/06/17 21:30:22;;;;;;;8.93;8.13;;;;;;;;;;6222635;23;20035;-81
2022/06/17 21:32:48;;;;;;;7.97;7.18;;;;;;;;;;6222360;23;20015;-83
2022/06/17 21:35:14;;;;;;;9.93;8.40;;;;;;;;;;6195913;23;20000;-83
2022/06/17 21:37:45;;;;;;;8.40;7.70;;;;;;;;;;6218505;23;20004;-81
2022/06/17 21:40:16;;;;;;;8.57;7.82;;;;;;;;;;6217135;23;20063;-81
2022/06/17 21:42:42;;;;;;;9.13;8.27;;;;;;;;;;6217231;23;20033;-81
